Airfield :
LOGIN :

Register | Disclaimer

   EN    FR    IT 

 










Legend :    VFR   Marginal VFR   IFR   Intensive IFR   Very Intensive IFR
Visi :
Ceiling :
>= 8 km
>= 3000ft
5 to 8 km
1000 to 3000 ft
1500m to 5 km
500 to 1000 ft
800 to 1500m
200 to 500 ft
< 800m
< 200 ft
Symbols :   Thunderstorms  Fog  Heavy snow  Heavy precipitations  Wind > 20 kt
SIGMETs :     Misc.  Thunderstorms  Icing  Turbulence  Mountain Waves  Volcanic Ashes






- Airport Elevation : 8 ft
- IATA code : JCU


GECE - Ceuta Heliport

CURRENT METAR :
  • 231830Z AUTO 11006KT 040V190 CAVOK 20/16 Q1013

EXPIRED METARs :
  • 231800Z AUTO VRB06KT CAVOK 21/16 Q1013
  • 231730Z AUTO 12006KT 040V150 CAVOK 21/17 Q1013
  • 231700Z AUTO 12006KT 040V190 CAVOK 21/16 Q1014
  • 231630Z AUTO VRB05KT CAVOK 22/15 Q1014
  • 231600Z AUTO VRB05KT CAVOK 22/15 Q1014
  • 231530Z AUTO 10006KT 360V170 CAVOK 22/15 Q1014
  • 231500Z AUTO 09007KT 040V140 CAVOK 21/13 Q1014
  • 231430Z AUTO VRB06KT CAVOK 21/16 Q1014
  • 231400Z AUTO VRB05KT CAVOK 21/16 Q1015

TAF TAF GECE
Valid from the 23 at 15:00 until the 24 at 15:00 UTC


231400Z 2315/2415 09008KT CAVOK TX20/2413Z TN16/2405Z
PROB40
TEMPO 2404/2409 BKN014



MET'MAP, your aeronautical weather chart ! - Copyright ORBIFLY December 2007 - Disclaimer

ORBIFLY MET'MAP TEAM :

Programming & Development : Alexandra Zaïnal
Original concept : Baudouin d'Aumeries
Technical & hardware support : Manuel Goepfert
Assistance : Marc-Olivier Méhu




SOURCES & CREDITS :

   NOAA